createdAt,value
2018-02-23T00:00:31.197Z,999.53
2018-02-23T00:01:31.225Z,999.56
2018-02-23T00:02:31.251Z,999.55
2018-02-23T00:03:31.282Z,999.55
2018-02-23T00:04:31.413Z,999.58
2018-02-23T00:05:31.338Z,999.57
2018-02-23T00:06:31.365Z,999.56
2018-02-23T00:07:31.392Z,999.60
2018-02-23T00:08:31.431Z,999.52
2018-02-23T00:09:31.457Z,999.55
2018-02-23T00:10:31.479Z,999.55
2018-02-23T00:11:31.508Z,999.61
2018-02-23T00:12:31.537Z,999.61
2018-02-23T00:13:31.564Z,999.56
2018-02-23T00:14:31.603Z,999.54
2018-02-23T00:15:31.621Z,999.61
2018-02-23T00:16:31.695Z,999.65
2018-02-23T00:17:31.675Z,999.67
2018-02-23T00:18:31.704Z,999.62
2018-02-23T00:19:31.734Z,999.65
2018-02-23T00:20:31.769Z,999.67
2018-02-23T00:21:31.791Z,999.63
2018-02-23T00:22:31.819Z,999.66
2018-02-23T00:23:31.847Z,999.72
2018-02-23T00:24:31.876Z,999.62
2018-02-23T00:25:31.907Z,999.65
2018-02-23T00:26:31.933Z,999.61
2018-02-23T00:27:31.960Z,999.61
2018-02-23T00:28:32.001Z,999.63
2018-02-23T00:29:32.018Z,999.60
2018-02-23T00:30:32.046Z,999.60
2018-02-23T00:31:32.076Z,999.62
2018-02-23T00:32:32.101Z,999.60
2018-02-23T00:33:32.131Z,999.59
2018-02-23T00:34:32.159Z,999.64
2018-02-23T00:35:32.186Z,999.61
2018-02-23T00:36:32.219Z,999.62
2018-02-23T00:37:32.246Z,999.64
2018-02-23T00:38:32.272Z,999.69
2018-02-23T00:39:32.299Z,999.67
2018-02-23T00:40:32.342Z,999.65
2018-02-23T00:41:32.368Z,999.69
2018-02-23T00:42:32.396Z,999.65
2018-02-23T00:43:32.413Z,999.68
2018-02-23T00:44:32.443Z,999.69
2018-02-23T00:45:32.467Z,999.69
2018-02-23T00:46:32.497Z,999.64
2018-02-23T00:47:32.528Z,999.67
2018-02-23T00:48:32.553Z,999.63
2018-02-23T00:49:32.584Z,999.68
2018-02-23T00:50:32.634Z,999.63
2018-02-23T00:51:32.638Z,999.62
2018-02-23T00:52:32.672Z,999.60
2018-02-23T00:53:32.699Z,999.62
2018-02-23T00:54:32.725Z,999.60
2018-02-23T00:55:32.752Z,999.63
2018-02-23T00:56:32.796Z,999.60
2018-02-23T00:57:32.869Z,999.55
2018-02-23T00:58:32.840Z,999.53
2018-02-23T00:59:32.876Z,999.53
2018-02-23T01:00:32.894Z,999.50
2018-02-23T01:01:32.930Z,999.54
2018-02-23T01:02:32.950Z,999.53
2018-02-23T01:03:32.981Z,999.50
2018-02-23T01:04:33.006Z,999.56
2018-02-23T01:05:33.036Z,999.48
2018-02-23T01:06:33.062Z,999.58
2018-02-23T01:07:33.090Z,999.52
2018-02-23T01:08:33.120Z,999.51
2018-02-23T01:09:33.150Z,999.51
2018-02-23T01:10:33.177Z,999.46
2018-02-23T01:11:33.205Z,999.49
2018-02-23T01:12:33.231Z,999.54
2018-02-23T01:13:33.262Z,999.51
2018-02-23T01:14:33.290Z,999.54
2018-02-23T01:15:33.317Z,999.45
2018-02-23T01:16:33.346Z,999.44
2018-02-23T01:17:33.372Z,999.49
2018-02-23T01:18:33.419Z,999.47
2018-02-23T01:19:33.427Z,999.50
2018-02-23T01:20:33.458Z,999.45
2018-02-23T01:21:33.563Z,999.49
2018-02-23T01:22:33.512Z,999.48
2018-02-23T01:23:33.543Z,999.48
2018-02-23T01:24:33.570Z,999.50
2018-02-23T01:25:33.595Z,999.47
2018-02-23T01:26:33.714Z,999.57
2018-02-23T01:27:33.653Z,999.51
2018-02-23T01:28:33.683Z,999.54
2018-02-23T01:29:33.708Z,999.56
2018-02-23T01:30:33.735Z,999.54
2018-02-23T01:31:33.764Z,999.57
2018-02-23T01:32:33.793Z,999.54
2018-02-23T01:33:33.820Z,999.51
2018-02-23T01:34:33.846Z,999.54
2018-02-23T01:35:33.876Z,999.52
2018-02-23T01:36:33.904Z,999.55
2018-02-23T01:37:33.934Z,999.48
2018-02-23T01:38:33.959Z,999.46
2018-02-23T01:39:33.988Z,999.49
2018-02-23T01:40:34.016Z,999.45
2018-02-23T01:41:34.046Z,999.48
2018-02-23T01:42:34.091Z,999.50
2018-02-23T01:43:34.205Z,999.41
2018-02-23T01:44:34.128Z,999.42
2018-02-23T01:45:34.157Z,999.45
2018-02-23T01:46:34.183Z,999.37
2018-02-23T01:47:34.212Z,999.38
2018-02-23T01:48:34.238Z,999.38
2018-02-23T01:49:34.266Z,999.34
2018-02-23T01:50:34.296Z,999.34
2018-02-23T01:51:34.332Z,999.37
2018-02-23T01:52:34.348Z,999.35
2018-02-23T01:53:34.382Z,999.29
2018-02-23T01:54:34.409Z,999.32
2018-02-23T01:55:34.432Z,999.24
2018-02-23T01:56:34.467Z,999.26
2018-02-23T01:57:34.488Z,999.26
2018-02-23T01:58:34.516Z,999.21
2018-02-23T01:59:34.548Z,999.20
2018-02-23T02:00:34.573Z,999.20
2018-02-23T02:01:34.613Z,999.19
2018-02-23T02:02:34.643Z,999.14
2018-02-23T02:03:34.658Z,999.16
2018-02-23T02:04:34.683Z,999.21
2018-02-23T02:05:34.710Z,999.17
2018-02-23T02:06:34.739Z,999.12
2018-02-23T02:07:34.765Z,999.13
2018-02-23T02:08:34.794Z,999.07
2018-02-23T02:09:34.821Z,999.13
2018-02-23T02:10:34.849Z,999.13
2018-02-23T02:11:34.882Z,999.09
2018-02-23T02:12:34.916Z,999.10
2018-02-23T02:13:34.932Z,999.14
2018-02-23T02:14:34.963Z,999.16
2018-02-23T02:15:34.989Z,999.16
2018-02-23T02:16:35.015Z,999.14
2018-02-23T02:17:35.047Z,999.11
2018-02-23T02:18:35.071Z,999.11
2018-02-23T02:19:35.099Z,999.08
2018-02-23T02:20:35.131Z,999.08
2018-02-23T02:21:35.154Z,999.11
2018-02-23T02:22:35.254Z,999.13
2018-02-23T02:23:35.213Z,999.06
2018-02-23T02:24:35.235Z,999.12
2018-02-23T02:25:35.264Z,999.09
2018-02-23T02:26:35.294Z,999.18
2018-02-23T02:27:35.321Z,999.12
2018-02-23T02:28:35.356Z,999.08
2018-02-23T02:29:35.375Z,999.12
2018-02-23T02:30:35.409Z,999.10
2018-02-23T02:31:35.433Z,999.14
2018-02-23T02:32:35.465Z,999.11
2018-02-23T02:33:35.487Z,999.09
2018-02-23T02:34:35.516Z,999.14
2018-02-23T02:35:35.544Z,999.17
2018-02-23T02:36:35.571Z,999.22
2018-02-23T02:37:35.596Z,999.23
2018-02-23T02:38:35.623Z,999.24
2018-02-23T02:39:35.652Z,999.23
2018-02-23T02:40:35.682Z,999.26
2018-02-23T02:41:35.706Z,999.30
2018-02-23T02:42:35.759Z,999.25
2018-02-23T02:43:35.768Z,999.23
2018-02-23T02:44:35.792Z,999.31
2018-02-23T02:45:35.815Z,999.31
2018-02-23T02:46:35.845Z,999.31
2018-02-23T02:47:35.874Z,999.28
2018-02-23T02:48:35.904Z,999.28
2018-02-23T02:49:35.941Z,999.31
2018-02-23T02:50:35.957Z,999.29
2018-02-23T02:51:36.044Z,999.31
2018-02-23T02:52:36.010Z,999.34
2018-02-23T02:53:36.036Z,999.35
2018-02-23T02:54:36.064Z,999.26
2018-02-23T02:55:36.095Z,999.33
2018-02-23T02:56:36.120Z,999.29
2018-02-23T02:57:36.145Z,999.28
2018-02-23T02:58:36.175Z,999.23
2018-02-23T02:59:36.204Z,999.32
2018-02-23T03:00:36.229Z,999.30
2018-02-23T03:01:36.259Z,999.29
2018-02-23T03:02:36.288Z,999.31
2018-02-23T03:03:36.322Z,999.30
2018-02-23T03:04:36.343Z,999.34
2018-02-23T03:05:36.381Z,999.32
2018-02-23T03:06:36.399Z,999.32
2018-02-23T03:07:36.421Z,999.33
2018-02-23T03:08:36.453Z,999.28
2018-02-23T03:09:36.496Z,999.28
2018-02-23T03:10:36.516Z,999.26
2018-02-23T03:11:36.536Z,999.27
2018-02-23T03:12:36.561Z,999.29
2018-02-23T03:13:36.598Z,999.26
2018-02-23T03:14:36.617Z,999.29
2018-02-23T03:15:36.698Z,999.32
2018-02-23T03:16:36.671Z,999.33
2018-02-23T03:17:36.698Z,999.28
2018-02-23T03:18:36.728Z,999.27
2018-02-23T03:19:36.749Z,999.27
2018-02-23T03:20:36.779Z,999.29
2018-02-23T03:21:36.808Z,999.29
2018-02-23T03:22:36.910Z,999.34
2018-02-23T03:23:36.861Z,999.27
2018-02-23T03:24:36.897Z,999.27
2018-02-23T03:25:36.920Z,999.25
2018-02-23T03:26:36.944Z,999.24
2018-02-23T03:27:36.974Z,999.22
2018-02-23T03:28:37.007Z,999.25
2018-02-23T03:29:37.029Z,999.22
2018-02-23T03:30:37.056Z,999.23
2018-02-23T03:31:37.084Z,999.23
2018-02-23T03:32:37.110Z,999.23
2018-02-23T03:33:37.135Z,999.22
2018-02-23T03:34:37.166Z,999.23
2018-02-23T03:35:37.188Z,999.24
2018-02-23T03:36:37.219Z,999.25
2018-02-23T03:37:37.250Z,999.29
2018-02-23T03:38:37.273Z,999.28
2018-02-23T03:39:37.372Z,999.25
2018-02-23T03:40:37.330Z,999.23
2018-02-23T03:41:37.355Z,999.23
2018-02-23T03:42:37.384Z,999.19
2018-02-23T03:43:37.411Z,999.20
2018-02-23T03:44:37.441Z,999.20
2018-02-23T03:45:37.464Z,999.21
2018-02-23T03:46:37.495Z,999.21
2018-02-23T03:47:37.522Z,999.21
2018-02-23T03:48:37.549Z,999.21
2018-02-23T03:49:37.575Z,999.16
2018-02-23T03:50:37.603Z,999.20
2018-02-23T03:51:37.637Z,999.18
2018-02-23T03:52:37.664Z,999.15
2018-02-23T03:53:37.684Z,999.18
2018-02-23T03:54:37.714Z,999.17
2018-02-23T03:55:37.745Z,999.16
2018-02-23T03:56:37.800Z,999.13
2018-02-23T03:57:37.800Z,999.07
2018-02-23T03:58:37.824Z,999.13
2018-02-23T03:59:37.855Z,999.11
2018-02-23T04:00:37.876Z,999.11
2018-02-23T04:01:37.905Z,999.06
2018-02-23T04:02:37.936Z,999.07
2018-02-23T04:03:37.973Z,999.06
2018-02-23T04:04:37.987Z,999.10
2018-02-23T04:05:38.014Z,999.09
2018-02-23T04:06:38.057Z,999.08
2018-02-23T04:07:38.069Z,999.10
2018-02-23T04:08:38.106Z,999.12
2018-02-23T04:09:38.120Z,999.09
2018-02-23T04:10:38.148Z,999.08
2018-02-23T04:11:38.178Z,999.09
2018-02-23T04:12:38.204Z,999.15
2018-02-23T04:13:38.236Z,999.13
2018-02-23T04:14:38.260Z,999.10
2018-02-23T04:15:38.285Z,999.17
2018-02-23T04:16:38.315Z,999.09
2018-02-23T04:17:38.339Z,999.06
2018-02-23T04:18:38.368Z,999.11
2018-02-23T04:19:38.395Z,999.11
2018-02-23T04:20:38.424Z,999.10
2018-02-23T04:21:38.446Z,999.06
2018-02-23T04:22:38.478Z,999.12
2018-02-23T04:23:38.506Z,999.09
2018-02-23T04:24:38.535Z,999.12
2018-02-23T04:25:38.617Z,999.06
2018-02-23T04:26:38.587Z,999.10
2018-02-23T04:27:38.617Z,999.07
2018-02-23T04:28:38.642Z,999.10
2018-02-23T04:29:38.668Z,999.07
2018-02-23T04:30:38.696Z,999.09
2018-02-23T04:31:38.723Z,999.08
2018-02-23T04:32:38.869Z,999.08
2018-02-23T04:33:38.777Z,999.07
2018-02-23T04:34:38.806Z,999.10
2018-02-23T04:35:38.834Z,999.13
2018-02-23T04:36:38.860Z,999.16
2018-02-23T04:37:38.888Z,999.20
2018-02-23T04:38:38.913Z,999.20
2018-02-23T04:39:38.940Z,999.18
2018-02-23T04:40:38.969Z,999.22
2018-02-23T04:41:38.998Z,999.23
2018-02-23T04:42:39.024Z,999.25
2018-02-23T04:43:39.052Z,999.24
2018-02-23T04:44:39.153Z,999.26
2018-02-23T04:45:39.104Z,999.21
2018-02-23T04:46:39.132Z,999.22
2018-02-23T04:47:39.161Z,999.22
2018-02-23T04:48:39.190Z,999.19
2018-02-23T04:49:39.215Z,999.18
2018-02-23T04:50:39.244Z,999.22
2018-02-23T04:51:39.273Z,999.25
2018-02-23T04:52:39.296Z,999.21
2018-02-23T04:53:39.322Z,999.23
2018-02-23T04:54:39.353Z,999.16
2018-02-23T04:55:39.382Z,999.20
2018-02-23T04:56:39.407Z,999.23
2018-02-23T04:57:39.431Z,999.25
2018-02-23T04:58:39.461Z,999.21
2018-02-23T04:59:39.489Z,999.22
2018-02-23T05:00:39.513Z,999.21
2018-02-23T05:01:39.553Z,999.25
2018-02-23T05:02:39.570Z,999.22
2018-02-23T05:03:39.595Z,999.20
2018-02-23T05:04:39.626Z,999.24
2018-02-23T05:05:39.651Z,999.23
2018-02-23T05:06:39.676Z,999.23
2018-02-23T05:07:39.704Z,999.25
2018-02-23T05:08:39.734Z,999.27
2018-02-23T05:09:39.762Z,999.27
2018-02-23T05:10:39.792Z,999.28
2018-02-23T05:11:39.835Z,999.30
2018-02-23T05:12:39.842Z,999.28
2018-02-23T05:13:39.868Z,999.34
2018-02-23T05:14:39.900Z,999.32
2018-02-23T05:15:39.923Z,999.33
2018-02-23T05:16:39.955Z,999.36
2018-02-23T05:17:39.977Z,999.35
2018-02-23T05:18:40.050Z,999.36
2018-02-23T05:19:40.034Z,999.38
2018-02-23T05:20:40.070Z,999.41
2018-02-23T05:21:40.088Z,999.41
2018-02-23T05:22:40.147Z,999.43
2018-02-23T05:23:40.141Z,999.39
2018-02-23T05:24:40.174Z,999.42
2018-02-23T05:25:40.192Z,999.42
2018-02-23T05:26:40.225Z,999.47
2018-02-23T05:27:40.264Z,999.48
2018-02-23T05:28:40.293Z,999.49
2018-02-23T05:29:40.306Z,999.47
2018-02-23T05:30:40.387Z,999.55
2018-02-23T05:31:40.358Z,999.52
2018-02-23T05:32:40.385Z,999.52
2018-02-23T05:33:40.409Z,999.46
2018-02-23T05:34:40.445Z,999.53
2018-02-23T05:35:40.467Z,999.50
2018-02-23T05:36:40.510Z,999.51
2018-02-23T05:37:40.518Z,999.49
2018-02-23T05:38:40.545Z,999.49
2018-02-23T05:39:40.576Z,999.55
2018-02-23T05:40:40.601Z,999.49
2018-02-23T05:41:40.628Z,999.51
2018-02-23T05:42:40.657Z,999.54
2018-02-23T05:43:40.681Z,999.53
2018-02-23T05:44:40.711Z,999.48
2018-02-23T05:45:40.736Z,999.50
2018-02-23T05:46:40.768Z,999.51
2018-02-23T05:47:40.803Z,999.51
2018-02-23T05:48:40.816Z,999.56
2018-02-23T05:49:40.846Z,999.60
2018-02-23T05:50:40.872Z,999.56
2018-02-23T05:51:40.900Z,999.57
2018-02-23T05:52:40.928Z,999.60
2018-02-23T05:53:40.953Z,999.61
2018-02-23T05:54:40.980Z,999.65
2018-02-23T05:55:41.008Z,999.58
2018-02-23T05:56:41.038Z,999.63
2018-02-23T05:57:41.065Z,999.61
2018-02-23T05:58:41.091Z,999.59
2018-02-23T05:59:41.119Z,999.61
2018-02-23T06:00:41.145Z,999.62
2018-02-23T06:01:41.172Z,999.64
2018-02-23T06:02:41.199Z,999.64
2018-02-23T06:03:41.223Z,999.64
2018-02-23T06:04:41.344Z,999.70
2018-02-23T06:05:41.280Z,999.67
2018-02-23T06:06:41.310Z,999.69
2018-02-23T06:07:41.335Z,999.69
2018-02-23T06:08:41.360Z,999.74
2018-02-23T06:09:41.394Z,999.77
2018-02-23T06:10:41.424Z,999.82
2018-02-23T06:11:41.444Z,999.78
2018-02-23T06:12:41.469Z,999.77
2018-02-23T06:13:41.495Z,999.76
2018-02-23T06:14:41.556Z,999.81
2018-02-23T06:15:41.552Z,999.78
2018-02-23T06:16:41.597Z,999.79
2018-02-23T06:17:41.603Z,999.81
2018-02-23T06:18:41.632Z,999.82
2018-02-23T06:19:41.662Z,999.84
2018-02-23T06:20:41.686Z,999.88
2018-02-23T06:21:41.713Z,999.92
2018-02-23T06:22:41.741Z,999.90
2018-02-23T06:23:41.780Z,999.92
2018-02-23T06:24:41.794Z,999.89
2018-02-23T06:25:41.821Z,999.87
2018-02-23T06:26:41.848Z,999.97
2018-02-23T06:27:41.874Z,999.97
2018-02-23T06:28:41.916Z,999.97
2018-02-23T06:29:41.931Z,999.94
2018-02-23T06:30:41.963Z,999.92
2018-02-23T06:31:41.991Z,999.92
2018-02-23T06:32:42.012Z,999.90
2018-02-23T06:33:42.047Z,999.94
2018-02-23T06:34:42.065Z,999.90
2018-02-23T06:35:42.094Z,999.88
2018-02-23T06:36:42.118Z,999.87
2018-02-23T06:37:42.149Z,999.91
2018-02-23T06:38:42.177Z,999.94
2018-02-23T06:39:42.204Z,999.92
2018-02-23T06:40:42.312Z,999.93
2018-02-23T06:41:42.255Z,999.96
2018-02-23T06:42:42.291Z,1000.01
2018-02-23T06:43:42.325Z,999.99
2018-02-23T06:44:42.361Z,999.99
2018-02-23T06:45:42.364Z,999.98
2018-02-23T06:46:42.390Z,1000.01
2018-02-23T06:47:42.421Z,1000.04
2018-02-23T06:48:42.445Z,1000.01
2018-02-23T06:49:42.470Z,1000.07
2018-02-23T06:50:42.571Z,999.97
2018-02-23T06:51:42.524Z,1000.02
2018-02-23T06:52:42.559Z,1000.06
2018-02-23T06:53:42.586Z,1000.06
2018-02-23T06:54:42.606Z,1000.02
2018-02-23T06:55:42.635Z,999.99
2018-02-23T06:56:42.667Z,1000.04
2018-02-23T06:57:42.799Z,1000.05
2018-02-23T06:58:42.715Z,1000.01
2018-02-23T06:59:42.749Z,1000.00
2018-02-23T07:00:42.778Z,1000.01
2018-02-23T07:01:42.798Z,1000.07
2018-02-23T07:02:42.827Z,1000.06
2018-02-23T07:03:42.850Z,1000.07
2018-02-23T07:04:42.908Z,1000.10
2018-02-23T07:05:42.906Z,1000.10
2018-02-23T07:06:42.932Z,1000.14
2018-02-23T07:07:42.961Z,1000.11
2018-02-23T07:08:42.987Z,1000.19
2018-02-23T07:09:43.018Z,1000.17
2018-02-23T07:10:43.040Z,1000.15
2018-02-23T07:11:43.067Z,1000.07
2018-02-23T07:12:43.098Z,1000.10
2018-02-23T07:13:43.123Z,1000.13
2018-02-23T07:14:43.150Z,1000.14
2018-02-23T07:15:43.180Z,1000.12
2018-02-23T07:16:43.209Z,1000.14
2018-02-23T07:17:43.229Z,1000.15
2018-02-23T07:18:43.263Z,1000.14
2018-02-23T07:19:43.289Z,1000.09
2018-02-23T07:20:43.313Z,1000.16
2018-02-23T07:21:43.339Z,1000.12
2018-02-23T07:22:43.372Z,1000.17
2018-02-23T07:23:43.401Z,1000.20
2018-02-23T07:24:43.421Z,1000.23
2018-02-23T07:25:43.448Z,1000.24
2018-02-23T07:26:43.517Z,1000.24
2018-02-23T07:27:43.504Z,1000.20
2018-02-23T07:28:43.540Z,1000.27
2018-02-23T07:29:43.560Z,1000.29
2018-02-23T07:30:43.585Z,1000.23
2018-02-23T07:31:43.615Z,1000.25
2018-02-23T07:32:43.640Z,1000.20
2018-02-23T07:33:43.667Z,1000.22
2018-02-23T07:34:43.694Z,1000.24
2018-02-23T07:35:43.735Z,1000.25
2018-02-23T07:36:43.756Z,1000.19
2018-02-23T07:37:43.777Z,1000.27
2018-02-23T07:38:43.807Z,1000.26
2018-02-23T07:39:43.831Z,1000.24
2018-02-23T07:40:43.860Z,1000.28
2018-02-23T07:41:43.886Z,1000.25
2018-02-23T07:42:43.911Z,1000.26
2018-02-23T07:43:44.044Z,1000.30
2018-02-23T07:44:43.972Z,1000.34
2018-02-23T07:45:43.995Z,1000.26
2018-02-23T07:46:44.021Z,1000.35
2018-02-23T07:47:44.055Z,1000.34
2018-02-23T07:48:44.077Z,1000.34
2018-02-23T07:49:44.104Z,1000.29
2018-02-23T07:50:44.132Z,1000.38
2018-02-23T07:51:44.158Z,1000.37
2018-02-23T07:52:44.186Z,1000.43
2018-02-23T07:53:44.212Z,1000.34
2018-02-23T07:54:44.246Z,1000.43
2018-02-23T07:55:44.276Z,1000.40
2018-02-23T07:56:44.295Z,1000.44
2018-02-23T07:57:44.322Z,1000.46
2018-02-23T07:58:44.350Z,1000.43
2018-02-23T07:59:44.395Z,1000.43
2018-02-23T08:00:44.408Z,1000.42
2018-02-23T08:01:44.434Z,1000.40
2018-02-23T08:02:44.459Z,1000.41
2018-02-23T08:03:44.489Z,1000.47
2018-02-23T08:04:44.522Z,1000.46
2018-02-23T08:05:44.545Z,1000.49
2018-02-23T08:06:44.571Z,1000.45
2018-02-23T08:07:44.597Z,1000.51
2018-02-23T08:08:44.625Z,1000.46
2018-02-23T08:09:44.650Z,1000.53
2018-02-23T08:10:44.679Z,1000.52
2018-02-23T08:11:44.713Z,1000.55
2018-02-23T08:12:44.820Z,1000.47
2018-02-23T08:13:44.761Z,1000.53
2018-02-23T08:14:44.827Z,1000.56
2018-02-23T08:15:44.818Z,1000.54
2018-02-23T08:16:44.848Z,1000.51
2018-02-23T08:17:44.871Z,1000.57
2018-02-23T08:18:44.898Z,1000.55
2018-02-23T08:19:44.929Z,1000.50
2018-02-23T08:20:44.960Z,1000.47
2018-02-23T08:21:44.982Z,1000.53
2018-02-23T08:22:45.012Z,1000.54
2018-02-23T08:23:45.037Z,1000.53
2018-02-23T08:24:45.066Z,1000.57
2018-02-23T08:25:45.092Z,1000.60
2018-02-23T08:26:45.122Z,1000.56
2018-02-23T08:27:45.152Z,1000.62
2018-02-23T08:28:45.177Z,1000.57
2018-02-23T08:29:45.283Z,1000.59
2018-02-23T08:30:45.230Z,1000.50
2018-02-23T08:31:45.259Z,1000.59
2018-02-23T08:32:45.289Z,1000.56
2018-02-23T08:33:45.313Z,1000.59
2018-02-23T08:34:45.340Z,1000.53
2018-02-23T08:35:45.372Z,1000.59
2018-02-23T08:36:45.402Z,1000.56
2018-02-23T08:37:45.424Z,1000.60
2018-02-23T08:38:45.451Z,1000.54
2018-02-23T08:39:45.478Z,1000.55
2018-02-23T08:40:45.516Z,1000.62
2018-02-23T08:41:45.534Z,1000.57
2018-02-23T08:42:45.560Z,1000.63
2018-02-23T08:43:45.593Z,1000.61
2018-02-23T08:44:45.619Z,1000.54
2018-02-23T08:45:45.644Z,1000.68
2018-02-23T08:46:45.686Z,1000.65
2018-02-23T08:47:45.700Z,1000.59
2018-02-23T08:48:45.731Z,1000.50
2018-02-23T08:49:45.757Z,1000.58
2018-02-23T08:50:45.782Z,1000.56
2018-02-23T08:51:45.814Z,1000.59
2018-02-23T08:52:45.849Z,1000.64
2018-02-23T08:53:45.883Z,1000.66
2018-02-23T08:54:45.893Z,1000.66
2018-02-23T08:55:45.948Z,1000.61
2018-02-23T08:56:45.951Z,1000.66
2018-02-23T08:57:45.976Z,1000.59
2018-02-23T08:58:46.007Z,1000.53
2018-02-23T08:59:46.034Z,1000.59
2018-02-23T09:00:46.071Z,1000.57
2018-02-23T09:01:46.086Z,1000.65
2018-02-23T09:02:46.116Z,1000.62
2018-02-23T09:03:46.197Z,1000.71
2018-02-23T09:04:46.174Z,1000.61
2018-02-23T09:05:46.210Z,1000.58
2018-02-23T09:06:46.227Z,1000.61
2018-02-23T09:07:46.255Z,1000.62
2018-02-23T09:08:46.283Z,1000.86
2018-02-23T09:09:46.313Z,1000.62
2018-02-23T09:10:46.368Z,1000.63
2018-02-23T09:11:46.369Z,1000.60
2018-02-23T09:12:46.397Z,1000.77
2018-02-23T09:13:46.431Z,1000.79
2018-02-23T09:14:46.449Z,1000.59
2018-02-23T09:15:46.477Z,1000.57
2018-02-23T09:16:46.503Z,1000.72
2018-02-23T09:17:46.535Z,1000.74
2018-02-23T09:18:46.570Z,1000.70
2018-02-23T09:19:46.591Z,1000.71
2018-02-23T09:20:46.617Z,1000.81
2018-02-23T09:21:46.646Z,1000.77
2018-02-23T09:22:46.730Z,1000.64
2018-02-23T09:23:46.701Z,1000.72
2018-02-23T09:24:46.726Z,1000.64
2018-02-23T09:25:46.755Z,1000.75
2018-02-23T09:26:46.785Z,1000.69
2018-02-23T09:27:46.810Z,1000.73
2018-02-23T09:28:46.839Z,1000.76
2018-02-23T09:29:46.864Z,1000.80
2018-02-23T09:30:46.894Z,1000.75
2018-02-23T09:31:46.921Z,1000.79
2018-02-23T09:32:46.948Z,1000.73
2018-02-23T09:33:46.976Z,1000.84
2018-02-23T09:34:47.025Z,1000.71
2018-02-23T09:35:47.031Z,1000.73
2018-02-23T09:36:47.065Z,1000.71
2018-02-23T09:37:47.090Z,1000.84
2018-02-23T09:38:47.118Z,1000.78
2018-02-23T09:39:47.147Z,1000.75
2018-02-23T09:40:47.172Z,1000.65
2018-02-23T09:41:47.216Z,1000.67
2018-02-23T09:42:47.226Z,1000.69
2018-02-23T09:43:47.257Z,1000.71
2018-02-23T09:44:47.322Z,1000.78
2018-02-23T09:45:47.310Z,1000.67
2018-02-23T09:46:47.337Z,1000.66
2018-02-23T09:47:47.367Z,1000.75
2018-02-23T09:48:47.397Z,1000.74
2018-02-23T09:49:47.466Z,1000.81
2018-02-23T09:50:47.451Z,1000.69
2018-02-23T09:51:47.479Z,1000.60
2018-02-23T09:52:47.512Z,1000.74
2018-02-23T09:53:47.534Z,1000.73
2018-02-23T09:54:47.565Z,1000.70
2018-02-23T09:55:47.587Z,1000.68
2018-02-23T09:56:47.622Z,1000.67
2018-02-23T09:57:47.644Z,1000.73
2018-02-23T09:58:47.673Z,1000.80
2018-02-23T09:59:47.698Z,1000.73
2018-02-23T10:00:47.729Z,1000.68
2018-02-23T10:01:47.766Z,1000.72
2018-02-23T10:02:47.781Z,1000.83
2018-02-23T10:03:47.815Z,1000.71
2018-02-23T10:04:47.838Z,1000.72
2018-02-23T10:05:47.865Z,1000.70
2018-02-23T10:06:47.899Z,1000.71
2018-02-23T10:07:47.924Z,1000.67
2018-02-23T10:08:47.974Z,1000.70
2018-02-23T10:09:47.980Z,1000.71
2018-02-23T10:10:48.011Z,1000.72
2018-02-23T10:11:48.041Z,1000.67
2018-02-23T10:12:48.071Z,1000.75
2018-02-23T10:13:48.095Z,1000.69
2018-02-23T10:14:48.119Z,1000.67
2018-02-23T10:15:48.147Z,1000.63
2018-02-23T10:16:48.175Z,1000.70
2018-02-23T10:17:48.202Z,1000.75
2018-02-23T10:18:48.240Z,1000.74
2018-02-23T10:19:48.265Z,1000.70
2018-02-23T10:20:48.288Z,1000.74
2018-02-23T10:21:48.313Z,1000.74
2018-02-23T10:22:48.342Z,1000.74
2018-02-23T10:23:48.372Z,1000.81
2018-02-23T10:24:48.410Z,1000.78
2018-02-23T10:25:48.434Z,1000.73
2018-02-23T10:26:48.452Z,1000.77
2018-02-23T10:27:48.481Z,1000.75
2018-02-23T10:28:48.515Z,1000.75
2018-02-23T10:29:48.540Z,1000.76
2018-02-23T10:30:48.566Z,1000.70
2018-02-23T10:31:48.593Z,1000.74
2018-02-23T10:32:48.632Z,1000.78
2018-02-23T10:33:48.652Z,1000.74
2018-02-23T10:34:48.682Z,1000.76
2018-02-23T10:35:48.705Z,1000.67
2018-02-23T10:36:48.735Z,1000.76
2018-02-23T10:37:48.764Z,1000.74
2018-02-23T10:38:48.793Z,1000.73
2018-02-23T10:39:48.819Z,1000.67
2018-02-23T10:40:48.855Z,1000.79
2018-02-23T10:41:48.874Z,1000.76
2018-02-23T10:42:48.904Z,1000.69
2018-02-23T10:43:48.933Z,1000.67
2018-02-23T10:44:48.959Z,1000.70
2018-02-23T10:45:48.986Z,1000.71
2018-02-23T10:46:49.015Z,1000.66
2018-02-23T10:47:49.097Z,1000.63
2018-02-23T10:48:49.075Z,1000.68
2018-02-23T10:49:49.100Z,1000.70
2018-02-23T10:50:49.128Z,1000.67
2018-02-23T10:51:49.155Z,1000.60
2018-02-23T10:52:49.187Z,1000.68
2018-02-23T10:53:49.217Z,1000.71
2018-02-23T10:54:49.315Z,1000.63
2018-02-23T10:55:49.269Z,1000.66
2018-02-23T10:56:49.299Z,1000.66
2018-02-23T10:57:49.326Z,1000.58
2018-02-23T10:58:49.354Z,1000.62
2018-02-23T10:59:49.388Z,1000.59
2018-02-23T11:00:49.421Z,1000.65
2018-02-23T11:01:49.438Z,1000.70
2018-02-23T11:02:49.467Z,1000.66
2018-02-23T11:03:49.496Z,1000.63
2018-02-23T11:04:49.528Z,1000.61
2018-02-23T11:05:49.553Z,1000.56
2018-02-23T11:06:49.580Z,1000.66
2018-02-23T11:07:49.617Z,1000.64
2018-02-23T11:08:49.640Z,1000.63
2018-02-23T11:09:49.681Z,1000.61
2018-02-23T11:10:49.694Z,1000.63
2018-02-23T11:11:49.790Z,1000.59
2018-02-23T11:12:49.757Z,1000.49
2018-02-23T11:13:49.780Z,1000.49
2018-02-23T11:14:49.811Z,1000.48
2018-02-23T11:15:49.836Z,1000.53
2018-02-23T11:16:49.867Z,1000.46
2018-02-23T11:17:49.892Z,1000.45
2018-02-23T11:18:49.922Z,1000.40
2018-02-23T11:19:49.957Z,1000.37
2018-02-23T11:20:49.979Z,1000.41
2018-02-23T11:21:50.005Z,1000.36
2018-02-23T11:22:50.032Z,1000.36
2018-02-23T11:23:50.061Z,1000.40
2018-02-23T11:24:50.089Z,1000.34
2018-02-23T11:25:50.120Z,1000.47
2018-02-23T11:26:50.145Z,1000.43
2018-02-23T11:27:50.174Z,1000.40
2018-02-23T11:28:50.202Z,1000.39
2018-02-23T11:29:50.231Z,1000.41
2018-02-23T11:30:50.260Z,1000.37
2018-02-23T11:31:50.288Z,1000.38
2018-02-23T11:32:50.316Z,1000.38
2018-02-23T11:33:50.343Z,1000.39
2018-02-23T11:34:50.375Z,1000.33
2018-02-23T11:35:50.399Z,1000.37
2018-02-23T11:36:50.433Z,1000.34
2018-02-23T11:37:50.509Z,1000.36
2018-02-23T11:38:50.487Z,1000.32
2018-02-23T11:39:50.518Z,1000.34
2018-02-23T11:40:50.596Z,1000.41
2018-02-23T11:41:50.574Z,1000.30
2018-02-23T11:42:50.601Z,1000.34
2018-02-23T11:43:50.631Z,1000.32
2018-02-23T11:44:50.656Z,1000.39
2018-02-23T11:45:50.684Z,1000.37
2018-02-23T11:46:50.714Z,1000.31
2018-02-23T11:47:50.845Z,1000.30
2018-02-23T11:48:50.773Z,1000.25
2018-02-23T11:49:50.803Z,1000.38
2018-02-23T11:50:50.834Z,1000.50
2018-02-23T11:51:50.855Z,1000.34
2018-02-23T11:52:50.907Z,1000.30
2018-02-23T11:53:50.914Z,1000.29
2018-02-23T11:54:50.944Z,1000.29
2018-02-23T11:55:50.974Z,1000.33
2018-02-23T11:56:51.011Z,1000.19
2018-02-23T11:57:51.029Z,1000.22
2018-02-23T11:58:51.057Z,1000.27
2018-02-23T11:59:51.085Z,1000.24
2018-02-23T12:00:51.121Z,1000.22
2018-02-23T12:01:51.139Z,1000.18
2018-02-23T12:02:51.186Z,1000.19
2018-02-23T12:03:51.201Z,1000.12
2018-02-23T12:04:51.260Z,1000.21
2018-02-23T12:05:51.258Z,1000.18
2018-02-23T12:06:51.298Z,1000.14
2018-02-23T12:07:51.315Z,1000.09
2018-02-23T12:08:51.345Z,1000.10
2018-02-23T12:09:51.371Z,1000.10
2018-02-23T12:10:51.397Z,1000.08
2018-02-23T12:11:51.428Z,1000.11
2018-02-23T12:12:51.460Z,1000.08
2018-02-23T12:13:51.485Z,1000.06
2018-02-23T12:14:51.515Z,1000.05
2018-02-23T12:15:51.595Z,1000.10
2018-02-23T12:16:51.570Z,1000.10
2018-02-23T12:17:51.604Z,1000.09
2018-02-23T12:18:51.628Z,1000.13